Hundvaag 1 weather for Jun 2000
Month no. 156
Obs.
Da.
Temp. Dew Point Precip. Wind
Speed
Wind gusts Cloud cover Press. Humidity Wind dir. Sunny OPT
01.06.2000 8,1   0,6     0 1014,7        
02.06.2000 11,6   4,2     0 1009,7     1  
03.06.2000 8,4   4,5     6 1018,8     1  
04.06.2000 5,9   0,0     10 1018,9     1  
05.06.2000 8,8   0,0     10 1019,1     1  
06.06.2000 9,4   0,0     6 1017,2     1  
07.06.2000 9,8   4,0     0 1016,5     1  
08.06.2000 9,8   0,2     8 1018,1     1  
09.06.2000 12,6   0,0     2 1018,5     1  
10.06.2000 16,2   0,5     0 1013,6     1  
11.06.2000 12,5   1,7     0 1012,8     1  
12.06.2000 11,6   0,2     0 1013,5     1  
13.06.2000 13,6   7,7     0 1011,5     1  
14.06.2000 11,2   3,4     1 1015,6     1  
15.06.2000 10,2   0,0     4 1015,7     1  
16.06.2000 7,6   1,6     9 1020,0     1  
17.06.2000 11,5   0,0     6 1022,3     1  
18.06.2000 13,5   1,5     0 1019,7        
19.06.2000 14,3   0,0     8 1016,4     1  
20.06.2000 13,8   0,0     0 1014,1     1  
21.06.2000 14,4   0,0     0 1011,3        
22.06.2000 14,7   6,6     0 1009,9     1  
23.06.2000 13,2   11,9     0 1009,1        
24.06.2000 11,8   2,9     0 1010,5     1  
25.06.2000 11,8   0,6     0 1012,1     1  
26.06.2000 10,4   0,0     2 1014,3     1  
27.06.2000 9,2   0,0     9 1016,4     1  
28.06.2000 9,8   0,0     3 1014,7     1  
29.06.2000 10,9   0,0     3 1015,1     1  
30.06.2000 12,4   0,0     2 1012,9        
                       
Avrg/Sum 11,3   52,1     3,0 1015,1     25